sensor_id;sensor_type;location;lat;lon;timestamp;P1;durP1;ratioP1;P2;durP2;ratioP2
56481;SDS011;42384;45.186;19.958;2022-12-18T00:01:58;41.43;;;21.00;;
56481;SDS011;42384;45.186;19.958;2022-12-18T00:04:25;42.28;;;20.83;;
56481;SDS011;42384;45.186;19.958;2022-12-18T00:06:51;44.50;;;22.48;;
56481;SDS011;42384;45.186;19.958;2022-12-18T00:09:18;42.45;;;21.13;;
56481;SDS011;42384;45.186;19.958;2022-12-18T00:11:44;53.97;;;21.60;;
56481;SDS011;42384;45.186;19.958;2022-12-18T00:14:10;40.63;;;22.08;;
56481;SDS011;42384;45.186;19.958;2022-12-18T00:16:37;51.92;;;23.23;;
56481;SDS011;42384;45.186;19.958;2022-12-18T00:19:04;47.53;;;21.47;;
56481;SDS011;42384;45.186;19.958;2022-12-18T00:21:31;43.07;;;21.53;;
56481;SDS011;42384;45.186;19.958;2022-12-18T00:23:58;42.92;;;20.85;;
56481;SDS011;42384;45.186;19.958;2022-12-18T00:26:28;39.70;;;21.13;;
56481;SDS011;42384;45.186;19.958;2022-12-18T00:28:58;39.83;;;20.80;;
56481;SDS011;42384;45.186;19.958;2022-12-18T00:31:24;46.42;;;23.98;;
56481;SDS011;42384;45.186;19.958;2022-12-18T00:33:51;44.10;;;20.98;;
56481;SDS011;42384;45.186;19.958;2022-12-18T00:36:18;45.65;;;23.58;;
56481;SDS011;42384;45.186;19.958;2022-12-18T00:38:45;45.45;;;23.25;;
56481;SDS011;42384;45.186;19.958;2022-12-18T00:41:13;46.88;;;22.58;;
56481;SDS011;42384;45.186;19.958;2022-12-18T00:43:59;43.72;;;23.10;;
56481;SDS011;42384;45.186;19.958;2022-12-18T00:46:25;49.50;;;24.40;;
56481;SDS011;42384;45.186;19.958;2022-12-18T00:48:51;44.42;;;22.23;;
56481;SDS011;42384;45.186;19.958;2022-12-18T00:51:18;46.50;;;24.07;;
56481;SDS011;42384;45.186;19.958;2022-12-18T00:53:44;42.80;;;22.15;;
56481;SDS011;42384;45.186;19.958;2022-12-18T00:56:11;48.80;;;24.38;;
56481;SDS011;42384;45.186;19.958;2022-12-18T00:58:37;46.42;;;22.83;;
56481;SDS011;42384;45.186;19.958;2022-12-18T01:01:04;47.70;;;24.25;;
56481;SDS011;42384;45.186;19.958;2022-12-18T01:03:30;47.17;;;22.48;;
56481;SDS011;42384;45.186;19.958;2022-12-18T01:05:56;47.63;;;23.83;;
56481;SDS011;42384;45.186;19.958;2022-12-18T01:08:22;46.47;;;23.33;;
56481;SDS011;42384;45.186;19.958;2022-12-18T01:10:49;50.92;;;24.08;;
56481;SDS011;42384;45.186;19.958;2022-12-18T01:13:15;49.63;;;24.33;;
56481;SDS011;42384;45.186;19.958;2022-12-18T01:15:47;44.30;;;23.05;;
56481;SDS011;42384;45.186;19.958;2022-12-18T01:18:14;51.25;;;24.85;;
56481;SDS011;42384;45.186;19.958;2022-12-18T01:20:40;48.03;;;23.88;;
56481;SDS011;42384;45.186;19.958;2022-12-18T01:23:06;41.93;;;23.23;;
56481;SDS011;42384;45.186;19.958;2022-12-18T01:25:32;43.50;;;21.92;;
56481;SDS011;42384;45.186;19.958;2022-12-18T01:27:59;49.95;;;24.88;;
56481;SDS011;42384;45.186;19.958;2022-12-18T01:30:25;50.45;;;24.98;;
56481;SDS011;42384;45.186;19.958;2022-12-18T01:32:51;46.88;;;24.42;;
56481;SDS011;42384;45.186;19.958;2022-12-18T01:35:17;44.60;;;22.50;;
56481;SDS011;42384;45.186;19.958;2022-12-18T01:37:43;48.15;;;24.33;;
56481;SDS011;42384;45.186;19.958;2022-12-18T01:40:10;48.25;;;23.55;;
56481;SDS011;42384;45.186;19.958;2022-12-18T01:42:36;46.85;;;22.75;;
56481;SDS011;42384;45.186;19.958;2022-12-18T01:47:39;48.30;;;22.92;;
56481;SDS011;42384;45.186;19.958;2022-12-18T01:52:33;45.38;;;22.10;;
56481;SDS011;42384;45.186;19.958;2022-12-18T01:54:59;47.00;;;21.55;;
56481;SDS011;42384;45.186;19.958;2022-12-18T01:57:26;45.97;;;22.23;;
56481;SDS011;42384;45.186;19.958;2022-12-18T01:59:53;46.78;;;22.88;;
56481;SDS011;42384;45.186;19.958;2022-12-18T02:02:22;43.70;;;20.92;;
56481;SDS011;42384;45.186;19.958;2022-12-18T02:04:48;48.23;;;22.90;;
56481;SDS011;42384;45.186;19.958;2022-12-18T02:08:15;45.17;;;22.50;;
56481;SDS011;42384;45.186;19.958;2022-12-18T02:13:20;49.17;;;23.90;;
56481;SDS011;42384;45.186;19.958;2022-12-18T02:16:02;47.97;;;23.25;;
56481;SDS011;42384;45.186;19.958;2022-12-18T02:18:32;47.83;;;21.88;;
56481;SDS011;42384;45.186;19.958;2022-12-18T02:29:10;42.92;;;21.33;;
56481;SDS011;42384;45.186;19.958;2022-12-18T02:31:40;47.92;;;22.75;;
56481;SDS011;42384;45.186;19.958;2022-12-18T02:34:08;46.70;;;22.23;;
56481;SDS011;42384;45.186;19.958;2022-12-18T02:39:01;44.55;;;20.25;;
56481;SDS011;42384;45.186;19.958;2022-12-18T02:41:28;43.70;;;21.20;;
56481;SDS011;42384;45.186;19.958;2022-12-18T02:43:56;50.03;;;21.88;;
56481;SDS011;42384;45.186;19.958;2022-12-18T02:48:53;46.03;;;22.67;;
56481;SDS011;42384;45.186;19.958;2022-12-18T02:51:29;44.50;;;21.40;;
56481;SDS011;42384;45.186;19.958;2022-12-18T02:53:58;47.67;;;22.70;;
56481;SDS011;42384;45.186;19.958;2022-12-18T02:56:28;47.28;;;23.55;;
56481;SDS011;42384;45.186;19.958;2022-12-18T02:59:00;44.67;;;22.67;;
56481;SDS011;42384;45.186;19.958;2022-12-18T03:01:30;52.63;;;24.02;;
56481;SDS011;42384;45.186;19.958;2022-12-18T03:04:03;52.50;;;24.25;;
56481;SDS011;42384;45.186;19.958;2022-12-18T03:06:32;46.05;;;22.15;;
56481;SDS011;42384;45.186;19.958;2022-12-18T03:09:06;49.75;;;23.45;;
56481;SDS011;42384;45.186;19.958;2022-12-18T03:11:33;51.83;;;24.05;;
56481;SDS011;42384;45.186;19.958;2022-12-18T03:14:26;50.30;;;24.13;;
56481;SDS011;42384;45.186;19.958;2022-12-18T03:16:55;52.53;;;24.27;;
56481;SDS011;42384;45.186;19.958;2022-12-18T03:19:24;49.42;;;23.35;;
56481;SDS011;42384;45.186;19.958;2022-12-18T03:21:53;49.95;;;23.27;;
56481;SDS011;42384;45.186;19.958;2022-12-18T03:24:20;47.53;;;23.20;;
56481;SDS011;42384;45.186;19.958;2022-12-18T03:26:48;47.90;;;22.45;;
56481;SDS011;42384;45.186;19.958;2022-12-18T03:29:27;51.17;;;25.23;;
56481;SDS011;42384;45.186;19.958;2022-12-18T03:34:22;50.72;;;22.15;;
56481;SDS011;42384;45.186;19.958;2022-12-18T03:36:49;50.60;;;22.92;;
56481;SDS011;42384;45.186;19.958;2022-12-18T03:39:15;47.30;;;24.08;;
56481;SDS011;42384;45.186;19.958;2022-12-18T03:42:25;53.38;;;23.77;;
56481;SDS011;42384;45.186;19.958;2022-12-18T03:44:42;51.88;;;25.02;;
56481;SDS011;42384;45.186;19.958;2022-12-18T03:47:26;48.78;;;23.05;;
56481;SDS011;42384;45.186;19.958;2022-12-18T03:53:03;51.53;;;24.30;;
56481;SDS011;42384;45.186;19.958;2022-12-18T03:55:09;46.55;;;22.63;;
56481;SDS011;42384;45.186;19.958;2022-12-18T03:57:35;48.03;;;23.23;;
56481;SDS011;42384;45.186;19.958;2022-12-18T04:00:09;49.92;;;23.65;;
56481;SDS011;42384;45.186;19.958;2022-12-18T04:02:37;52.22;;;23.75;;
56481;SDS011;42384;45.186;19.958;2022-12-18T04:05:04;53.45;;;24.42;;
56481;SDS011;42384;45.186;19.958;2022-12-18T04:07:31;54.40;;;24.52;;
56481;SDS011;42384;45.186;19.958;2022-12-18T04:09:58;52.33;;;24.00;;
56481;SDS011;42384;45.186;19.958;2022-12-18T04:12:26;51.75;;;24.63;;
56481;SDS011;42384;45.186;19.958;2022-12-18T04:14:52;53.05;;;24.23;;
56481;SDS011;42384;45.186;19.958;2022-12-18T04:17:18;51.90;;;25.13;;
56481;SDS011;42384;45.186;19.958;2022-12-18T04:19:44;51.72;;;24.25;;
56481;SDS011;42384;45.186;19.958;2022-12-18T04:22:11;49.58;;;25.00;;
56481;SDS011;42384;45.186;19.958;2022-12-18T04:24:37;49.95;;;24.75;;
56481;SDS011;42384;45.186;19.958;2022-12-18T04:27:03;51.05;;;24.13;;
56481;SDS011;42384;45.186;19.958;2022-12-18T04:29:30;56.93;;;25.83;;
56481;SDS011;42384;45.186;19.958;2022-12-18T04:31:56;54.28;;;26.10;;
56481;SDS011;42384;45.186;19.958;2022-12-18T04:34:22;53.67;;;25.45;;
56481;SDS011;42384;45.186;19.958;2022-12-18T04:36:48;54.20;;;25.17;;
56481;SDS011;42384;45.186;19.958;2022-12-18T04:39:14;48.97;;;24.52;;
56481;SDS011;42384;45.186;19.958;2022-12-18T04:41:43;52.60;;;25.92;;
56481;SDS011;42384;45.186;19.958;2022-12-18T04:44:10;52.40;;;24.23;;
56481;SDS011;42384;45.186;19.958;2022-12-18T04:46:36;49.63;;;24.38;;
56481;SDS011;42384;45.186;19.958;2022-12-18T04:49:02;57.97;;;24.65;;
56481;SDS011;42384;45.186;19.958;2022-12-18T04:51:28;57.72;;;26.33;;
56481;SDS011;42384;45.186;19.958;2022-12-18T04:53:54;56.55;;;25.45;;
56481;SDS011;42384;45.186;19.958;2022-12-18T04:56:20;55.67;;;25.38;;
56481;SDS011;42384;45.186;19.958;2022-12-18T04:58:46;54.28;;;24.35;;
56481;SDS011;42384;45.186;19.958;2022-12-18T05:01:14;57.15;;;25.75;;
56481;SDS011;42384;45.186;19.958;2022-12-18T05:03:40;57.28;;;26.42;;
56481;SDS011;42384;45.186;19.958;2022-12-18T05:06:06;60.33;;;26.10;;
56481;SDS011;42384;45.186;19.958;2022-12-18T05:08:33;57.77;;;26.50;;
56481;SDS011;42384;45.186;19.958;2022-12-18T05:10:59;56.13;;;26.83;;
56481;SDS011;42384;45.186;19.958;2022-12-18T05:13:26;59.05;;;27.70;;
56481;SDS011;42384;45.186;19.958;2022-12-18T05:15:52;58.40;;;27.70;;
56481;SDS011;42384;45.186;19.958;2022-12-18T05:18:18;60.53;;;27.13;;
56481;SDS011;42384;45.186;19.958;2022-12-18T05:20:44;57.60;;;27.95;;
56481;SDS011;42384;45.186;19.958;2022-12-18T05:23:11;59.85;;;26.63;;
56481;SDS011;42384;45.186;19.958;2022-12-18T05:25:37;62.35;;;25.65;;
56481;SDS011;42384;45.186;19.958;2022-12-18T05:28:03;60.00;;;27.73;;
56481;SDS011;42384;45.186;19.958;2022-12-18T05:30:29;57.15;;;27.02;;
56481;SDS011;42384;45.186;19.958;2022-12-18T05:32:55;53.42;;;25.67;;
56481;SDS011;42384;45.186;19.958;2022-12-18T05:35:22;57.33;;;26.98;;
56481;SDS011;42384;45.186;19.958;2022-12-18T05:37:48;60.00;;;27.25;;
56481;SDS011;42384;45.186;19.958;2022-12-18T05:40:14;59.10;;;28.40;;
56481;SDS011;42384;45.186;19.958;2022-12-18T05:42:40;57.95;;;27.67;;
56481;SDS011;42384;45.186;19.958;2022-12-18T05:45:06;67.07;;;29.65;;
56481;SDS011;42384;45.186;19.958;2022-12-18T05:47:32;64.50;;;27.23;;
56481;SDS011;42384;45.186;19.958;2022-12-18T05:49:58;62.80;;;28.75;;
56481;SDS011;42384;45.186;19.958;2022-12-18T05:52:25;60.83;;;28.05;;
56481;SDS011;42384;45.186;19.958;2022-12-18T05:54:51;62.63;;;28.90;;
56481;SDS011;42384;45.186;19.958;2022-12-18T05:57:17;70.43;;;30.33;;
56481;SDS011;42384;45.186;19.958;2022-12-18T05:59:43;73.00;;;31.02;;
56481;SDS011;42384;45.186;19.958;2022-12-18T06:02:09;66.38;;;30.73;;
56481;SDS011;42384;45.186;19.958;2022-12-18T06:04:35;65.95;;;31.55;;
56481;SDS011;42384;45.186;19.958;2022-12-18T06:07:02;66.85;;;28.92;;
56481;SDS011;42384;45.186;19.958;2022-12-18T06:09:28;63.95;;;29.13;;
56481;SDS011;42384;45.186;19.958;2022-12-18T06:11:54;66.22;;;29.40;;
56481;SDS011;42384;45.186;19.958;2022-12-18T06:14:21;61.28;;;28.20;;
56481;SDS011;42384;45.186;19.958;2022-12-18T06:16:47;70.57;;;30.40;;
56481;SDS011;42384;45.186;19.958;2022-12-18T06:19:14;66.65;;;30.48;;
56481;SDS011;42384;45.186;19.958;2022-12-18T06:21:41;64.05;;;28.83;;
56481;SDS011;42384;45.186;19.958;2022-12-18T06:24:07;56.10;;;26.67;;
56481;SDS011;42384;45.186;19.958;2022-12-18T06:26:33;65.35;;;29.40;;
56481;SDS011;42384;45.186;19.958;2022-12-18T06:28:59;61.67;;;28.90;;
56481;SDS011;42384;45.186;19.958;2022-12-18T06:31:25;67.47;;;29.65;;
56481;SDS011;42384;45.186;19.958;2022-12-18T06:33:52;62.95;;;29.08;;
56481;SDS011;42384;45.186;19.958;2022-12-18T06:36:18;59.45;;;29.25;;
56481;SDS011;42384;45.186;19.958;2022-12-18T06:38:45;60.40;;;28.95;;
56481;SDS011;42384;45.186;19.958;2022-12-18T06:41:12;56.88;;;27.85;;
56481;SDS011;42384;45.186;19.958;2022-12-18T06:43:38;59.60;;;27.95;;
56481;SDS011;42384;45.186;19.958;2022-12-18T06:46:05;59.88;;;27.83;;
56481;SDS011;42384;45.186;19.958;2022-12-18T06:48:31;59.53;;;28.63;;
56481;SDS011;42384;45.186;19.958;2022-12-18T06:50:57;61.03;;;29.20;;
56481;SDS011;42384;45.186;19.958;2022-12-18T06:53:24;63.08;;;29.95;;
56481;SDS011;42384;45.186;19.958;2022-12-18T06:55:50;62.33;;;30.02;;
56481;SDS011;42384;45.186;19.958;2022-12-18T06:58:16;60.03;;;29.88;;
56481;SDS011;42384;45.186;19.958;2022-12-18T07:00:43;67.88;;;31.55;;
56481;SDS011;42384;45.186;19.958;2022-12-18T07:03:09;66.60;;;31.07;;
56481;SDS011;42384;45.186;19.958;2022-12-18T07:05:39;69.93;;;32.77;;
56481;SDS011;42384;45.186;19.958;2022-12-18T07:08:05;70.78;;;32.63;;
56481;SDS011;42384;45.186;19.958;2022-12-18T07:10:31;67.90;;;31.95;;
56481;SDS011;42384;45.186;19.958;2022-12-18T07:12:57;71.28;;;33.40;;
56481;SDS011;42384;45.186;19.958;2022-12-18T07:15:23;75.10;;;34.15;;
56481;SDS011;42384;45.186;19.958;2022-12-18T07:17:50;78.45;;;36.80;;
56481;SDS011;42384;45.186;19.958;2022-12-18T07:20:16;74.43;;;34.90;;
56481;SDS011;42384;45.186;19.958;2022-12-18T07:22:42;78.32;;;37.30;;
56481;SDS011;42384;45.186;19.958;2022-12-18T07:25:08;74.80;;;35.47;;
56481;SDS011;42384;45.186;19.958;2022-12-18T07:27:34;75.95;;;35.92;;
56481;SDS011;42384;45.186;19.958;2022-12-18T07:30:01;74.93;;;34.15;;
56481;SDS011;42384;45.186;19.958;2022-12-18T07:32:27;64.68;;;31.45;;
56481;SDS011;42384;45.186;19.958;2022-12-18T07:34:53;73.30;;;35.00;;
56481;SDS011;42384;45.186;19.958;2022-12-18T07:37:19;80.55;;;37.72;;
56481;SDS011;42384;45.186;19.958;2022-12-18T07:39:45;70.07;;;33.58;;
56481;SDS011;42384;45.186;19.958;2022-12-18T07:42:11;68.32;;;32.28;;
56481;SDS011;42384;45.186;19.958;2022-12-18T07:44:56;65.90;;;30.48;;
56481;SDS011;42384;45.186;19.958;2022-12-18T07:47:22;69.53;;;35.58;;
56481;SDS011;42384;45.186;19.958;2022-12-18T07:49:48;71.88;;;33.15;;
56481;SDS011;42384;45.186;19.958;2022-12-18T07:52:14;68.57;;;32.40;;
56481;SDS011;42384;45.186;19.958;2022-12-18T07:54:41;67.90;;;34.38;;
56481;SDS011;42384;45.186;19.958;2022-12-18T07:57:07;72.65;;;36.33;;
56481;SDS011;42384;45.186;19.958;2022-12-18T07:59:34;80.57;;;38.22;;
56481;SDS011;42384;45.186;19.958;2022-12-18T08:02:00;82.63;;;39.22;;
56481;SDS011;42384;45.186;19.958;2022-12-18T08:04:26;82.13;;;38.17;;
56481;SDS011;42384;45.186;19.958;2022-12-18T08:06:52;67.82;;;32.90;;
56481;SDS011;42384;45.186;19.958;2022-12-18T08:09:19;76.05;;;36.22;;
56481;SDS011;42384;45.186;19.958;2022-12-18T08:11:45;68.80;;;34.13;;
56481;SDS011;42384;45.186;19.958;2022-12-18T08:14:11;77.82;;;38.60;;
56481;SDS011;42384;45.186;19.958;2022-12-18T08:16:37;66.82;;;31.80;;
56481;SDS011;42384;45.186;19.958;2022-12-18T08:19:03;67.95;;;33.13;;
56481;SDS011;42384;45.186;19.958;2022-12-18T08:21:30;68.78;;;31.70;;
56481;SDS011;42384;45.186;19.958;2022-12-18T08:23:57;65.63;;;31.05;;
56481;SDS011;42384;45.186;19.958;2022-12-18T08:26:24;62.70;;;29.75;;
56481;SDS011;42384;45.186;19.958;2022-12-18T08:28:51;60.58;;;28.05;;
56481;SDS011;42384;45.186;19.958;2022-12-18T08:31:18;59.47;;;27.08;;
56481;SDS011;42384;45.186;19.958;2022-12-18T08:33:45;61.90;;;29.00;;
56481;SDS011;42384;45.186;19.958;2022-12-18T08:36:11;60.53;;;27.70;;
56481;SDS011;42384;45.186;19.958;2022-12-18T08:38:37;67.95;;;31.48;;
56481;SDS011;42384;45.186;19.958;2022-12-18T08:41:08;58.55;;;28.30;;
56481;SDS011;42384;45.186;19.958;2022-12-18T08:43:35;56.88;;;26.73;;
56481;SDS011;42384;45.186;19.958;2022-12-18T08:46:20;59.78;;;28.15;;
56481;SDS011;42384;45.186;19.958;2022-12-18T08:48:47;56.38;;;26.92;;
56481;SDS011;42384;45.186;19.958;2022-12-18T08:51:15;56.33;;;26.30;;
56481;SDS011;42384;45.186;19.958;2022-12-18T08:53:41;63.33;;;28.98;;
56481;SDS011;42384;45.186;19.958;2022-12-18T08:56:08;59.33;;;27.77;;
56481;SDS011;42384;45.186;19.958;2022-12-18T08:58:34;61.58;;;27.95;;
56481;SDS011;42384;45.186;19.958;2022-12-18T09:01:01;53.95;;;27.23;;
56481;SDS011;42384;45.186;19.958;2022-12-18T09:03:27;66.45;;;29.80;;
56481;SDS011;42384;45.186;19.958;2022-12-18T09:05:53;65.68;;;30.25;;
56481;SDS011;42384;45.186;19.958;2022-12-18T09:08:19;65.57;;;30.58;;
56481;SDS011;42384;45.186;19.958;2022-12-18T09:10:46;60.63;;;29.60;;
56481;SDS011;42384;45.186;19.958;2022-12-18T09:13:13;63.55;;;29.65;;
56481;SDS011;42384;45.186;19.958;2022-12-18T09:15:44;71.05;;;32.47;;
56481;SDS011;42384;45.186;19.958;2022-12-18T09:18:10;70.68;;;31.58;;
56481;SDS011;42384;45.186;19.958;2022-12-18T09:20:37;66.17;;;30.63;;
56481;SDS011;42384;45.186;19.958;2022-12-18T09:23:04;65.35;;;33.97;;
56481;SDS011;42384;45.186;19.958;2022-12-18T09:25:30;65.45;;;31.63;;
56481;SDS011;42384;45.186;19.958;2022-12-18T09:27:58;68.15;;;33.15;;
56481;SDS011;42384;45.186;19.958;2022-12-18T09:30:25;67.32;;;32.30;;
56481;SDS011;42384;45.186;19.958;2022-12-18T09:32:51;67.83;;;32.67;;
56481;SDS011;42384;45.186;19.958;2022-12-18T09:35:20;70.78;;;33.35;;
56481;SDS011;42384;45.186;19.958;2022-12-18T09:37:46;71.63;;;36.20;;
56481;SDS011;42384;45.186;19.958;2022-12-18T09:40:16;72.32;;;34.65;;
56481;SDS011;42384;45.186;19.958;2022-12-18T09:42:48;74.30;;;35.33;;
56481;SDS011;42384;45.186;19.958;2022-12-18T09:45:17;72.55;;;36.55;;
56481;SDS011;42384;45.186;19.958;2022-12-18T09:47:44;68.63;;;33.47;;
56481;SDS011;42384;45.186;19.958;2022-12-18T09:50:28;74.95;;;37.03;;
56481;SDS011;42384;45.186;19.958;2022-12-18T09:52:56;75.47;;;36.75;;
56481;SDS011;42384;45.186;19.958;2022-12-18T09:55:30;73.85;;;36.08;;
56481;SDS011;42384;45.186;19.958;2022-12-18T09:58:00;68.78;;;34.15;;
56481;SDS011;42384;45.186;19.958;2022-12-18T10:00:28;66.03;;;31.85;;
56481;SDS011;42384;45.186;19.958;2022-12-18T10:03:02;63.28;;;31.80;;
56481;SDS011;42384;45.186;19.958;2022-12-18T10:10:46;85.38;;;38.92;;
56481;SDS011;42384;45.186;19.958;2022-12-18T10:15:54;78.43;;;39.10;;
56481;SDS011;42384;45.186;19.958;2022-12-18T10:21:52;68.95;;;35.30;;
56481;SDS011;42384;45.186;19.958;2022-12-18T10:26:41;77.95;;;37.35;;
56481;SDS011;42384;45.186;19.958;2022-12-18T10:29:14;72.05;;;34.63;;
56481;SDS011;42384;45.186;19.958;2022-12-18T10:31:41;69.68;;;35.58;;
56481;SDS011;42384;45.186;19.958;2022-12-18T10:34:13;67.72;;;35.17;;
56481;SDS011;42384;45.186;19.958;2022-12-18T10:36:40;72.38;;;34.22;;
56481;SDS011;42384;45.186;19.958;2022-12-18T10:39:20;69.70;;;35.60;;
56481;SDS011;42384;45.186;19.958;2022-12-18T10:42:03;70.38;;;35.55;;
56481;SDS011;42384;45.186;19.958;2022-12-18T10:44:34;77.13;;;38.90;;
56481;SDS011;42384;45.186;19.958;2022-12-18T10:47:04;70.35;;;35.42;;
56481;SDS011;42384;45.186;19.958;2022-12-18T10:49:32;64.75;;;31.42;;
56481;SDS011;42384;45.186;19.958;2022-12-18T10:54:45;66.97;;;34.45;;
56481;SDS011;42384;45.186;19.958;2022-12-18T10:57:32;78.47;;;37.13;;
56481;SDS011;42384;45.186;19.958;2022-12-18T10:59:59;79.90;;;38.80;;
56481;SDS011;42384;45.186;19.958;2022-12-18T11:02:36;72.32;;;34.97;;
56481;SDS011;42384;45.186;19.958;2022-12-18T11:05:22;71.35;;;36.28;;
56481;SDS011;42384;45.186;19.958;2022-12-18T11:07:49;76.70;;;37.85;;
56481;SDS011;42384;45.186;19.958;2022-12-18T11:12:42;69.85;;;32.78;;
56481;SDS011;42384;45.186;19.958;2022-12-18T11:15:15;69.25;;;33.40;;
56481;SDS011;42384;45.186;19.958;2022-12-18T11:17:42;72.22;;;34.97;;
56481;SDS011;42384;45.186;19.958;2022-12-18T11:22:57;69.43;;;35.45;;
56481;SDS011;42384;45.186;19.958;2022-12-18T11:25:24;72.70;;;33.85;;
56481;SDS011;42384;45.186;19.958;2022-12-18T11:28:00;75.55;;;36.30;;
56481;SDS011;42384;45.186;19.958;2022-12-18T11:30:28;70.95;;;33.63;;
56481;SDS011;42384;45.186;19.958;2022-12-18T11:33:18;69.30;;;36.08;;
56481;SDS011;42384;45.186;19.958;2022-12-18T11:35:52;74.97;;;34.58;;
56481;SDS011;42384;45.186;19.958;2022-12-18T11:38:21;72.95;;;35.83;;
56481;SDS011;42384;45.186;19.958;2022-12-18T11:43:30;69.90;;;34.40;;
56481;SDS011;42384;45.186;19.958;2022-12-18T11:48:46;73.13;;;35.40;;
56481;SDS011;42384;45.186;19.958;2022-12-18T11:51:18;70.57;;;35.45;;
56481;SDS011;42384;45.186;19.958;2022-12-18T11:53:46;77.90;;;36.60;;
56481;SDS011;42384;45.186;19.958;2022-12-18T11:56:20;73.45;;;35.70;;
56481;SDS011;42384;45.186;19.958;2022-12-18T12:01:34;70.85;;;33.70;;
56481;SDS011;42384;45.186;19.958;2022-12-18T12:14:53;68.85;;;32.67;;
56481;SDS011;42384;45.186;19.958;2022-12-18T12:19:55;65.90;;;33.85;;
56481;SDS011;42384;45.186;19.958;2022-12-18T12:22:36;61.45;;;31.33;;
56481;SDS011;42384;45.186;19.958;2022-12-18T12:25:18;69.18;;;32.80;;
56481;SDS011;42384;45.186;19.958;2022-12-18T12:38:22;66.00;;;32.05;;
56481;SDS011;42384;45.186;19.958;2022-12-18T12:40:58;65.95;;;32.22;;
56481;SDS011;42384;45.186;19.958;2022-12-18T12:46:05;62.90;;;30.30;;
56481;SDS011;42384;45.186;19.958;2022-12-18T12:50:58;60.87;;;30.80;;
56481;SDS011;42384;45.186;19.958;2022-12-18T12:53:28;60.92;;;30.42;;
56481;SDS011;42384;45.186;19.958;2022-12-18T12:55:56;61.85;;;31.98;;
56481;SDS011;42384;45.186;19.958;2022-12-18T13:01:13;69.18;;;32.22;;
56481;SDS011;42384;45.186;19.958;2022-12-18T13:08:57;64.03;;;32.33;;
56481;SDS011;42384;45.186;19.958;2022-12-18T13:11:32;70.90;;;33.53;;
56481;SDS011;42384;45.186;19.958;2022-12-18T13:14:20;68.47;;;33.58;;
56481;SDS011;42384;45.186;19.958;2022-12-18T13:16:46;69.75;;;33.97;;
56481;SDS011;42384;45.186;19.958;2022-12-18T13:19:21;70.97;;;33.22;;
56481;SDS011;42384;45.186;19.958;2022-12-18T13:21:57;68.70;;;33.30;;
56481;SDS011;42384;45.186;19.958;2022-12-18T13:24:27;66.78;;;33.50;;
56481;SDS011;42384;45.186;19.958;2022-12-18T13:26:54;62.38;;;31.38;;
56481;SDS011;42384;45.186;19.958;2022-12-18T13:32:22;66.80;;;32.90;;
56481;SDS011;42384;45.186;19.958;2022-12-18T13:34:59;72.90;;;35.92;;
56481;SDS011;42384;45.186;19.958;2022-12-18T13:37:41;66.32;;;33.10;;
56481;SDS011;42384;45.186;19.958;2022-12-18T13:46:00;62.58;;;31.85;;
56481;SDS011;42384;45.186;19.958;2022-12-18T13:48:27;62.08;;;32.15;;
56481;SDS011;42384;45.186;19.958;2022-12-18T13:50:56;72.57;;;35.15;;
56481;SDS011;42384;45.186;19.958;2022-12-18T13:53:30;67.55;;;32.72;;
56481;SDS011;42384;45.186;19.958;2022-12-18T13:55:58;62.67;;;33.60;;
56481;SDS011;42384;45.186;19.958;2022-12-18T13:58:24;70.70;;;35.22;;
56481;SDS011;42384;45.186;19.958;2022-12-18T14:00:50;68.20;;;33.85;;
56481;SDS011;42384;45.186;19.958;2022-12-18T14:03:26;63.85;;;33.92;;
56481;SDS011;42384;45.186;19.958;2022-12-18T14:06:00;75.10;;;35.42;;
56481;SDS011;42384;45.186;19.958;2022-12-18T14:08:28;68.72;;;34.97;;
56481;SDS011;42384;45.186;19.958;2022-12-18T14:10:56;74.50;;;35.17;;
56481;SDS011;42384;45.186;19.958;2022-12-18T14:13:32;72.07;;;33.78;;
56481;SDS011;42384;45.186;19.958;2022-12-18T14:16:00;74.57;;;35.67;;
56481;SDS011;42384;45.186;19.958;2022-12-18T14:21:00;76.70;;;37.55;;
56481;SDS011;42384;45.186;19.958;2022-12-18T14:25:53;70.30;;;35.70;;
56481;SDS011;42384;45.186;19.958;2022-12-18T14:28:19;74.32;;;36.50;;
56481;SDS011;42384;45.186;19.958;2022-12-18T14:30:47;78.43;;;37.05;;
56481;SDS011;42384;45.186;19.958;2022-12-18T14:35:40;66.88;;;33.97;;
56481;SDS011;42384;45.186;19.958;2022-12-18T14:38:30;72.28;;;35.47;;
56481;SDS011;42384;45.186;19.958;2022-12-18T14:41:04;72.78;;;34.58;;
56481;SDS011;42384;45.186;19.958;2022-12-18T14:43:35;77.35;;;36.25;;
56481;SDS011;42384;45.186;19.958;2022-12-18T14:46:02;69.03;;;34.85;;
56481;SDS011;42384;45.186;19.958;2022-12-18T14:51:02;67.55;;;33.92;;
56481;SDS011;42384;45.186;19.958;2022-12-18T14:53:33;73.63;;;34.88;;
56481;SDS011;42384;45.186;19.958;2022-12-18T14:56:00;71.90;;;37.20;;
56481;SDS011;42384;45.186;19.958;2022-12-18T14:58:26;71.75;;;36.42;;
56481;SDS011;42384;45.186;19.958;2022-12-18T15:00:53;71.18;;;35.28;;
56481;SDS011;42384;45.186;19.958;2022-12-18T15:03:20;74.95;;;36.00;;
56481;SDS011;42384;45.186;19.958;2022-12-18T15:05:46;69.40;;;34.65;;
56481;SDS011;42384;45.186;19.958;2022-12-18T15:11:25;70.47;;;35.40;;
56481;SDS011;42384;45.186;19.958;2022-12-18T15:13:51;73.85;;;36.30;;
56481;SDS011;42384;45.186;19.958;2022-12-18T15:16:17;73.13;;;34.97;;
56481;SDS011;42384;45.186;19.958;2022-12-18T15:18:44;71.57;;;35.70;;
56481;SDS011;42384;45.186;19.958;2022-12-18T15:21:11;70.97;;;35.50;;
56481;SDS011;42384;45.186;19.958;2022-12-18T15:26:11;71.85;;;34.40;;
56481;SDS011;42384;45.186;19.958;2022-12-18T15:28:38;69.43;;;34.45;;
56481;SDS011;42384;45.186;19.958;2022-12-18T15:33:41;78.88;;;36.42;;
56481;SDS011;42384;45.186;19.958;2022-12-18T15:36:13;70.47;;;36.25;;
56481;SDS011;42384;45.186;19.958;2022-12-18T15:38:39;76.35;;;36.60;;
56481;SDS011;42384;45.186;19.958;2022-12-18T15:41:11;73.28;;;35.42;;
56481;SDS011;42384;45.186;19.958;2022-12-18T15:43:38;78.38;;;36.13;;
56481;SDS011;42384;45.186;19.958;2022-12-18T15:48:44;70.68;;;33.28;;
56481;SDS011;42384;45.186;19.958;2022-12-18T15:53:40;76.25;;;34.88;;
56481;SDS011;42384;45.186;19.958;2022-12-18T15:56:13;73.38;;;34.05;;
56481;SDS011;42384;45.186;19.958;2022-12-18T15:58:58;73.38;;;33.90;;
56481;SDS011;42384;45.186;19.958;2022-12-18T16:01:25;72.50;;;34.80;;
56481;SDS011;42384;45.186;19.958;2022-12-18T16:03:52;75.10;;;35.42;;
56481;SDS011;42384;45.186;19.958;2022-12-18T16:06:19;67.80;;;33.53;;
56481;SDS011;42384;45.186;19.958;2022-12-18T16:08:45;72.10;;;35.95;;
56481;SDS011;42384;45.186;19.958;2022-12-18T16:11:16;75.03;;;35.20;;
56481;SDS011;42384;45.186;19.958;2022-12-18T16:14:03;74.72;;;34.38;;
56481;SDS011;42384;45.186;19.958;2022-12-18T16:16:29;70.07;;;35.38;;
56481;SDS011;42384;45.186;19.958;2022-12-18T16:18:55;72.05;;;34.05;;
56481;SDS011;42384;45.186;19.958;2022-12-18T16:21:21;67.97;;;33.38;;
56481;SDS011;42384;45.186;19.958;2022-12-18T16:23:47;66.90;;;32.78;;